sensor_id;sensor_type;location;lat;lon;timestamp;P1;durP1;ratioP1;P2;durP2;ratioP2
17422;SDS011;8829;47.932;7.810;2023-06-26T00:00:32;6.37;;;3.33;;
17422;SDS011;8829;47.932;7.810;2023-06-26T00:02:58;3.23;;;2.93;;
17422;SDS011;8829;47.932;7.810;2023-06-26T00:05:25;6.30;;;3.10;;
17422;SDS011;8829;47.932;7.810;2023-06-26T00:07:55;3.67;;;3.37;;
17422;SDS011;8829;47.932;7.810;2023-06-26T00:10:25;3.80;;;3.50;;
17422;SDS011;8829;47.932;7.810;2023-06-26T00:12:52;4.17;;;3.23;;
17422;SDS011;8829;47.932;7.810;2023-06-26T00:15:20;3.60;;;3.30;;
17422;SDS011;8829;47.932;7.810;2023-06-26T00:17:47;3.40;;;3.10;;
17422;SDS011;8829;47.932;7.810;2023-06-26T00:20:13;5.73;;;2.93;;
17422;SDS011;8829;47.932;7.810;2023-06-26T00:22:41;5.13;;;3.37;;
17422;SDS011;8829;47.932;7.810;2023-06-26T00:25:08;3.53;;;3.23;;
17422;SDS011;8829;47.932;7.810;2023-06-26T00:27:35;3.53;;;3.23;;
17422;SDS011;8829;47.932;7.810;2023-06-26T00:30:01;3.77;;;3.47;;
17422;SDS011;8829;47.932;7.810;2023-06-26T00:32:30;3.20;;;3.00;;
17422;SDS011;8829;47.932;7.810;2023-06-26T00:34:56;4.93;;;3.03;;
17422;SDS011;8829;47.932;7.810;2023-06-26T00:37:23;3.87;;;3.57;;
17422;SDS011;8829;47.932;7.810;2023-06-26T00:39:50;4.07;;;3.50;;
17422;SDS011;8829;47.932;7.810;2023-06-26T00:42:16;3.97;;;3.27;;
17422;SDS011;8829;47.932;7.810;2023-06-26T00:44:43;4.93;;;3.30;;
17422;SDS011;8829;47.932;7.810;2023-06-26T00:47:10;3.27;;;3.07;;
17422;SDS011;8829;47.932;7.810;2023-06-26T00:49:40;3.80;;;3.40;;
17422;SDS011;8829;47.932;7.810;2023-06-26T00:52:07;4.83;;;3.90;;
17422;SDS011;8829;47.932;7.810;2023-06-26T00:54:34;3.57;;;3.27;;
17422;SDS011;8829;47.932;7.810;2023-06-26T00:57:01;3.60;;;3.30;;
17422;SDS011;8829;47.932;7.810;2023-06-26T00:59:28;4.17;;;3.30;;
17422;SDS011;8829;47.932;7.810;2023-06-26T01:01:55;3.43;;;3.10;;
17422;SDS011;8829;47.932;7.810;2023-06-26T01:04:21;3.70;;;3.13;;
17422;SDS011;8829;47.932;7.810;2023-06-26T01:06:53;3.77;;;3.47;;
17422;SDS011;8829;47.932;7.810;2023-06-26T01:09:21;3.63;;;3.33;;
17422;SDS011;8829;47.932;7.810;2023-06-26T01:11:49;3.80;;;3.20;;
17422;SDS011;8829;47.932;7.810;2023-06-26T01:14:16;5.67;;;3.40;;
17422;SDS011;8829;47.932;7.810;2023-06-26T01:16:43;3.63;;;3.20;;
17422;SDS011;8829;47.932;7.810;2023-06-26T01:19:13;4.13;;;3.70;;
17422;SDS011;8829;47.932;7.810;2023-06-26T01:21:50;3.40;;;3.10;;
17422;SDS011;8829;47.932;7.810;2023-06-26T01:24:23;3.63;;;3.37;;
17422;SDS011;8829;47.932;7.810;2023-06-26T01:26:55;3.90;;;3.60;;
17422;SDS011;8829;47.932;7.810;2023-06-26T01:29:24;4.20;;;3.27;;
17422;SDS011;8829;47.932;7.810;2023-06-26T01:31:51;3.70;;;3.40;;
17422;SDS011;8829;47.932;7.810;2023-06-26T01:34:18;4.23;;;3.80;;
17422;SDS011;8829;47.932;7.810;2023-06-26T01:36:45;3.87;;;3.57;;
17422;SDS011;8829;47.932;7.810;2023-06-26T01:39:14;3.50;;;3.20;;
17422;SDS011;8829;47.932;7.810;2023-06-26T01:41:42;3.43;;;3.13;;
17422;SDS011;8829;47.932;7.810;2023-06-26T01:44:15;4.47;;;3.10;;
17422;SDS011;8829;47.932;7.810;2023-06-26T01:46:53;3.60;;;3.30;;
17422;SDS011;8829;47.932;7.810;2023-06-26T01:49:26;3.60;;;3.30;;
17422;SDS011;8829;47.932;7.810;2023-06-26T01:52:14;3.23;;;2.97;;
17422;SDS011;8829;47.932;7.810;2023-06-26T01:54:49;3.27;;;3.00;;
17422;SDS011;8829;47.932;7.810;2023-06-26T01:57:20;3.20;;;2.90;;
17422;SDS011;8829;47.932;7.810;2023-06-26T01:59:50;3.40;;;3.10;;
17422;SDS011;8829;47.932;7.810;2023-06-26T02:02:17;3.57;;;3.10;;
17422;SDS011;8829;47.932;7.810;2023-06-26T02:04:44;3.53;;;3.20;;
17422;SDS011;8829;47.932;7.810;2023-06-26T02:07:13;3.87;;;3.50;;
17422;SDS011;8829;47.932;7.810;2023-06-26T02:09:40;3.33;;;3.13;;
17422;SDS011;8829;47.932;7.810;2023-06-26T02:12:07;3.73;;;3.43;;
17422;SDS011;8829;47.932;7.810;2023-06-26T02:14:33;4.10;;;3.20;;
17422;SDS011;8829;47.932;7.810;2023-06-26T02:17:01;3.27;;;2.97;;
17422;SDS011;8829;47.932;7.810;2023-06-26T02:19:28;4.07;;;2.80;;
17422;SDS011;8829;47.932;7.810;2023-06-26T02:21:55;3.13;;;2.83;;
17422;SDS011;8829;47.932;7.810;2023-06-26T02:24:22;3.47;;;2.70;;
17422;SDS011;8829;47.932;7.810;2023-06-26T02:26:49;4.23;;;3.10;;
17422;SDS011;8829;47.932;7.810;2023-06-26T02:29:15;3.00;;;2.70;;
17422;SDS011;8829;47.932;7.810;2023-06-26T02:31:42;3.37;;;3.07;;
17422;SDS011;8829;47.932;7.810;2023-06-26T02:34:10;3.63;;;3.33;;
17422;SDS011;8829;47.932;7.810;2023-06-26T02:36:37;4.93;;;3.53;;
17422;SDS011;8829;47.932;7.810;2023-06-26T02:39:04;3.27;;;2.97;;
17422;SDS011;8829;47.932;7.810;2023-06-26T02:41:31;3.00;;;2.80;;
17422;SDS011;8829;47.932;7.810;2023-06-26T02:43:57;3.17;;;2.97;;
17422;SDS011;8829;47.932;7.810;2023-06-26T02:46:24;3.60;;;3.30;;
17422;SDS011;8829;47.932;7.810;2023-06-26T02:48:51;3.53;;;3.17;;
17422;SDS011;8829;47.932;7.810;2023-06-26T02:51:19;4.00;;;3.37;;
17422;SDS011;8829;47.932;7.810;2023-06-26T02:53:45;4.60;;;3.50;;
17422;SDS011;8829;47.932;7.810;2023-06-26T02:56:12;3.53;;;3.23;;
17422;SDS011;8829;47.932;7.810;2023-06-26T02:58:39;3.40;;;3.10;;
17422;SDS011;8829;47.932;7.810;2023-06-26T03:01:05;3.63;;;3.33;;
17422;SDS011;8829;47.932;7.810;2023-06-26T03:03:32;7.63;;;3.77;;
17422;SDS011;8829;47.932;7.810;2023-06-26T03:06:05;3.50;;;3.20;;
17422;SDS011;8829;47.932;7.810;2023-06-26T03:08:35;3.70;;;3.40;;
17422;SDS011;8829;47.932;7.810;2023-06-26T03:11:03;3.40;;;3.10;;
17422;SDS011;8829;47.932;7.810;2023-06-26T03:13:30;4.33;;;3.30;;
17422;SDS011;8829;47.932;7.810;2023-06-26T03:15:57;3.83;;;3.53;;
17422;SDS011;8829;47.932;7.810;2023-06-26T03:18:24;3.83;;;3.20;;
17422;SDS011;8829;47.932;7.810;2023-06-26T03:20:51;3.70;;;3.40;;
17422;SDS011;8829;47.932;7.810;2023-06-26T03:23:19;4.03;;;3.60;;
17422;SDS011;8829;47.932;7.810;2023-06-26T03:25:47;4.57;;;4.13;;
17422;SDS011;8829;47.932;7.810;2023-06-26T03:28:14;3.93;;;3.63;;
17422;SDS011;8829;47.932;7.810;2023-06-26T03:30:40;4.50;;;4.10;;
17422;SDS011;8829;47.932;7.810;2023-06-26T03:33:07;4.97;;;3.40;;
17422;SDS011;8829;47.932;7.810;2023-06-26T03:35:34;4.23;;;3.83;;
17422;SDS011;8829;47.932;7.810;2023-06-26T03:38:00;4.53;;;3.53;;
17422;SDS011;8829;47.932;7.810;2023-06-26T03:40:27;3.70;;;3.40;;
17422;SDS011;8829;47.932;7.810;2023-06-26T03:42:55;9.03;;;3.37;;
17422;SDS011;8829;47.932;7.810;2023-06-26T03:45:22;3.70;;;3.40;;
17422;SDS011;8829;47.932;7.810;2023-06-26T03:47:49;3.60;;;3.30;;
17422;SDS011;8829;47.932;7.810;2023-06-26T03:50:15;3.90;;;3.50;;
17422;SDS011;8829;47.932;7.810;2023-06-26T03:52:42;4.00;;;3.70;;
17422;SDS011;8829;47.932;7.810;2023-06-26T03:55:09;4.23;;;3.80;;
17422;SDS011;8829;47.932;7.810;2023-06-26T03:57:36;3.73;;;3.43;;
17422;SDS011;8829;47.932;7.810;2023-06-26T04:00:04;4.20;;;3.87;;
17422;SDS011;8829;47.932;7.810;2023-06-26T04:02:33;3.80;;;3.50;;
17422;SDS011;8829;47.932;7.810;2023-06-26T04:05:00;4.00;;;3.60;;
17422;SDS011;8829;47.932;7.810;2023-06-26T04:07:28;3.80;;;3.50;;
17422;SDS011;8829;47.932;7.810;2023-06-26T04:09:56;4.03;;;3.73;;
17422;SDS011;8829;47.932;7.810;2023-06-26T04:12:22;4.87;;;3.23;;
17422;SDS011;8829;47.932;7.810;2023-06-26T04:14:49;4.17;;;3.87;;
17422;SDS011;8829;47.932;7.810;2023-06-26T04:17:17;4.87;;;4.10;;
17422;SDS011;8829;47.932;7.810;2023-06-26T04:19:44;4.33;;;3.80;;
17422;SDS011;8829;47.932;7.810;2023-06-26T04:22:11;3.77;;;3.50;;
17422;SDS011;8829;47.932;7.810;2023-06-26T04:24:38;3.67;;;3.37;;
17422;SDS011;8829;47.932;7.810;2023-06-26T04:27:05;4.40;;;4.00;;
17422;SDS011;8829;47.932;7.810;2023-06-26T04:29:31;4.23;;;3.67;;
17422;SDS011;8829;47.932;7.810;2023-06-26T04:31:58;4.83;;;4.33;;
17422;SDS011;8829;47.932;7.810;2023-06-26T04:34:26;4.90;;;4.23;;
17422;SDS011;8829;47.932;7.810;2023-06-26T04:36:57;4.03;;;3.73;;
17422;SDS011;8829;47.932;7.810;2023-06-26T04:39:24;4.97;;;4.50;;
17422;SDS011;8829;47.932;7.810;2023-06-26T04:41:50;3.87;;;3.57;;
17422;SDS011;8829;47.932;7.810;2023-06-26T04:44:17;4.40;;;4.03;;
17422;SDS011;8829;47.932;7.810;2023-06-26T04:46:44;4.23;;;3.83;;
17422;SDS011;8829;47.932;7.810;2023-06-26T04:49:11;4.53;;;4.10;;
17422;SDS011;8829;47.932;7.810;2023-06-26T04:51:39;5.57;;;3.53;;
17422;SDS011;8829;47.932;7.810;2023-06-26T04:54:06;4.47;;;4.07;;
17422;SDS011;8829;47.932;7.810;2023-06-26T04:56:33;4.17;;;3.83;;
17422;SDS011;8829;47.932;7.810;2023-06-26T04:59:00;4.23;;;3.83;;
17422;SDS011;8829;47.932;7.810;2023-06-26T05:01:28;4.57;;;4.00;;
17422;SDS011;8829;47.932;7.810;2023-06-26T05:03:55;4.23;;;3.83;;
17422;SDS011;8829;47.932;7.810;2023-06-26T05:06:21;4.43;;;4.03;;
17422;SDS011;8829;47.932;7.810;2023-06-26T05:08:49;6.13;;;3.97;;
17422;SDS011;8829;47.932;7.810;2023-06-26T05:11:16;4.27;;;3.87;;
17422;SDS011;8829;47.932;7.810;2023-06-26T05:13:43;4.87;;;4.33;;
17422;SDS011;8829;47.932;7.810;2023-06-26T05:16:10;4.17;;;3.80;;
17422;SDS011;8829;47.932;7.810;2023-06-26T05:18:36;3.80;;;3.50;;
17422;SDS011;8829;47.932;7.810;2023-06-26T05:21:03;4.77;;;4.20;;
17422;SDS011;8829;47.932;7.810;2023-06-26T05:23:31;4.73;;;3.80;;
17422;SDS011;8829;47.932;7.810;2023-06-26T05:26:00;3.90;;;3.60;;
17422;SDS011;8829;47.932;7.810;2023-06-26T05:28:28;4.13;;;3.80;;
17422;SDS011;8829;47.932;7.810;2023-06-26T05:30:56;4.80;;;3.80;;
17422;SDS011;8829;47.932;7.810;2023-06-26T05:33:23;6.23;;;4.03;;
17422;SDS011;8829;47.932;7.810;2023-06-26T05:35:52;4.40;;;4.00;;
17422;SDS011;8829;47.932;7.810;2023-06-26T05:38:19;4.67;;;3.93;;
17422;SDS011;8829;47.932;7.810;2023-06-26T05:40:47;3.97;;;3.67;;
17422;SDS011;8829;47.932;7.810;2023-06-26T05:43:16;3.70;;;3.40;;
17422;SDS011;8829;47.932;7.810;2023-06-26T05:45:46;7.57;;;3.80;;
17422;SDS011;8829;47.932;7.810;2023-06-26T05:48:13;4.27;;;3.87;;
17422;SDS011;8829;47.932;7.810;2023-06-26T05:50:40;3.77;;;3.47;;
17422;SDS011;8829;47.932;7.810;2023-06-26T05:53:08;4.07;;;3.50;;
17422;SDS011;8829;47.932;7.810;2023-06-26T05:55:36;4.13;;;3.83;;
17422;SDS011;8829;47.932;7.810;2023-06-26T05:58:04;3.77;;;3.40;;
17422;SDS011;8829;47.932;7.810;2023-06-26T06:00:33;4.50;;;3.50;;
17422;SDS011;8829;47.932;7.810;2023-06-26T06:03:00;4.07;;;3.27;;
17422;SDS011;8829;47.932;7.810;2023-06-26T06:05:27;5.03;;;3.85;;
17422;SDS011;8829;47.932;7.810;2023-06-26T06:07:54;3.67;;;3.38;;
17422;SDS011;8829;47.932;7.810;2023-06-26T06:10:20;3.58;;;3.28;;
17422;SDS011;8829;47.932;7.810;2023-06-26T06:12:47;3.60;;;3.30;;
17422;SDS011;8829;47.932;7.810;2023-06-26T06:15:14;3.85;;;3.55;;
17422;SDS011;8829;47.932;7.810;2023-06-26T06:17:42;4.20;;;3.83;;
17422;SDS011;8829;47.932;7.810;2023-06-26T06:20:09;4.07;;;3.75;;
17422;SDS011;8829;47.932;7.810;2023-06-26T06:22:36;4.47;;;3.83;;
17422;SDS011;8829;47.932;7.810;2023-06-26T06:25:03;3.83;;;3.47;;
17422;SDS011;8829;47.932;7.810;2023-06-26T06:27:30;3.92;;;3.53;;
17422;SDS011;8829;47.932;7.810;2023-06-26T06:29:57;3.67;;;3.47;;
17422;SDS011;8829;47.932;7.810;2023-06-26T06:32:23;3.60;;;3.33;;
17422;SDS011;8829;47.932;7.810;2023-06-26T06:34:51;4.20;;;3.80;;
17422;SDS011;8829;47.932;7.810;2023-06-26T06:37:18;3.78;;;3.35;;
17422;SDS011;8829;47.932;7.810;2023-06-26T06:39:45;3.42;;;3.20;;
17422;SDS011;8829;47.932;7.810;2023-06-26T06:42:12;4.10;;;3.63;;
17422;SDS011;8829;47.932;7.810;2023-06-26T06:44:39;4.90;;;4.25;;
17422;SDS011;8829;47.932;7.810;2023-06-26T06:47:05;3.53;;;3.33;;
17422;SDS011;8829;47.932;7.810;2023-06-26T06:49:32;4.25;;;3.50;;
17422;SDS011;8829;47.932;7.810;2023-06-26T06:52:00;3.90;;;3.50;;
17422;SDS011;8829;47.932;7.810;2023-06-26T06:54:27;4.10;;;3.80;;
17422;SDS011;8829;47.932;7.810;2023-06-26T06:56:54;3.72;;;3.47;;
17422;SDS011;8829;47.932;7.810;2023-06-26T06:59:20;4.03;;;3.72;;
17422;SDS011;8829;47.932;7.810;2023-06-26T07:01:47;4.97;;;3.78;;
17422;SDS011;8829;47.932;7.810;2023-06-26T07:04:14;3.88;;;3.30;;
17422;SDS011;8829;47.932;7.810;2023-06-26T07:06:40;4.35;;;3.58;;
17422;SDS011;8829;47.932;7.810;2023-06-26T07:09:08;3.45;;;2.97;;
17422;SDS011;8829;47.932;7.810;2023-06-26T07:11:35;3.85;;;3.47;;
17422;SDS011;8829;47.932;7.810;2023-06-26T07:14:02;3.80;;;3.50;;
17422;SDS011;8829;47.932;7.810;2023-06-26T07:16:28;3.72;;;3.35;;
17422;SDS011;8829;47.932;7.810;2023-06-26T07:18:55;3.85;;;3.55;;
17422;SDS011;8829;47.932;7.810;2023-06-26T07:21:22;3.92;;;3.63;;
17422;SDS011;8829;47.932;7.810;2023-06-26T07:23:49;5.00;;;3.53;;
17422;SDS011;8829;47.932;7.810;2023-06-26T07:26:17;3.53;;;3.30;;
17422;SDS011;8829;47.932;7.810;2023-06-26T07:28:43;6.60;;;3.58;;
17422;SDS011;8829;47.932;7.810;2023-06-26T07:31:10;5.85;;;3.50;;
17422;SDS011;8829;47.932;7.810;2023-06-26T07:33:37;4.03;;;3.40;;
17422;SDS011;8829;47.932;7.810;2023-06-26T07:36:04;3.80;;;3.50;;
17422;SDS011;8829;47.932;7.810;2023-06-26T07:38:31;3.70;;;3.40;;
17422;SDS011;8829;47.932;7.810;2023-06-26T07:40:57;3.78;;;3.47;;
17422;SDS011;8829;47.932;7.810;2023-06-26T07:43:26;3.60;;;3.13;;
17422;SDS011;8829;47.932;7.810;2023-06-26T07:45:52;3.67;;;3.38;;
17422;SDS011;8829;47.932;7.810;2023-06-26T07:48:19;3.90;;;3.60;;
17422;SDS011;8829;47.932;7.810;2023-06-26T07:50:46;3.58;;;3.25;;
17422;SDS011;8829;47.932;7.810;2023-06-26T07:53:12;4.15;;;3.72;;
17422;SDS011;8829;47.932;7.810;2023-06-26T07:55:39;4.03;;;3.63;;
17422;SDS011;8829;47.932;7.810;2023-06-26T07:58:06;4.05;;;3.75;;
17422;SDS011;8829;47.932;7.810;2023-06-26T08:00:34;3.50;;;3.30;;
17422;SDS011;8829;47.932;7.810;2023-06-26T08:03:01;5.85;;;3.58;;
17422;SDS011;8829;47.932;7.810;2023-06-26T08:05:28;3.55;;;3.22;;
17422;SDS011;8829;47.932;7.810;2023-06-26T08:07:55;3.95;;;3.65;;
17422;SDS011;8829;47.932;7.810;2023-06-26T08:10:21;4.03;;;3.58;;
17422;SDS011;8829;47.932;7.810;2023-06-26T08:12:48;3.58;;;3.33;;
17422;SDS011;8829;47.932;7.810;2023-06-26T08:15:16;3.75;;;3.45;;
17422;SDS011;8829;47.932;7.810;2023-06-26T08:17:44;4.18;;;3.83;;
17422;SDS011;8829;47.932;7.810;2023-06-26T08:20:11;4.05;;;3.72;;
17422;SDS011;8829;47.932;7.810;2023-06-26T08:22:38;4.93;;;4.00;;
17422;SDS011;8829;47.932;7.810;2023-06-26T08:25:05;3.70;;;3.30;;
17422;SDS011;8829;47.932;7.810;2023-06-26T08:27:32;3.95;;;3.50;;
17422;SDS011;8829;47.932;7.810;2023-06-26T08:29:59;5.22;;;4.45;;
17422;SDS011;8829;47.932;7.810;2023-06-26T08:32:25;6.40;;;3.67;;
17422;SDS011;8829;47.932;7.810;2023-06-26T08:34:53;7.00;;;3.90;;
17422;SDS011;8829;47.932;7.810;2023-06-26T08:37:20;4.05;;;3.75;;
17422;SDS011;8829;47.932;7.810;2023-06-26T08:39:47;4.47;;;4.07;;
17422;SDS011;8829;47.932;7.810;2023-06-26T08:42:15;4.13;;;3.67;;
17422;SDS011;8829;47.932;7.810;2023-06-26T08:44:42;7.32;;;4.55;;
17422;SDS011;8829;47.932;7.810;2023-06-26T08:47:09;5.22;;;4.20;;
17422;SDS011;8829;47.932;7.810;2023-06-26T08:49:41;5.47;;;3.85;;
17422;SDS011;8829;47.932;7.810;2023-06-26T08:52:17;4.40;;;3.88;;
17422;SDS011;8829;47.932;7.810;2023-06-26T08:54:46;6.07;;;3.85;;
17422;SDS011;8829;47.932;7.810;2023-06-26T08:57:18;6.93;;;4.53;;
17422;SDS011;8829;47.932;7.810;2023-06-26T08:59:48;5.30;;;4.22;;
17422;SDS011;8829;47.932;7.810;2023-06-26T09:02:15;4.55;;;3.65;;
17422;SDS011;8829;47.932;7.810;2023-06-26T09:04:42;5.72;;;4.63;;
17422;SDS011;8829;47.932;7.810;2023-06-26T09:07:09;4.07;;;3.78;;
17422;SDS011;8829;47.932;7.810;2023-06-26T09:09:37;4.93;;;3.95;;
17422;SDS011;8829;47.932;7.810;2023-06-26T09:12:04;4.55;;;4.15;;
17422;SDS011;8829;47.932;7.810;2023-06-26T09:14:31;5.25;;;4.05;;
17422;SDS011;8829;47.932;7.810;2023-06-26T09:16:58;5.53;;;4.45;;
17422;SDS011;8829;47.932;7.810;2023-06-26T09:19:25;4.43;;;4.05;;
17422;SDS011;8829;47.932;7.810;2023-06-26T09:21:52;4.20;;;3.80;;
17422;SDS011;8829;47.932;7.810;2023-06-26T09:24:20;4.95;;;4.55;;
17422;SDS011;8829;47.932;7.810;2023-06-26T09:26:49;5.68;;;4.53;;
17422;SDS011;8829;47.932;7.810;2023-06-26T09:29:17;11.80;;;4.88;;
17422;SDS011;8829;47.932;7.810;2023-06-26T09:31:45;5.38;;;4.90;;
17422;SDS011;8829;47.932;7.810;2023-06-26T09:34:12;7.45;;;4.70;;
17422;SDS011;8829;47.932;7.810;2023-06-26T09:36:38;4.80;;;4.40;;
17422;SDS011;8829;47.932;7.810;2023-06-26T09:39:07;7.05;;;4.85;;
17422;SDS011;8829;47.932;7.810;2023-06-26T09:41:35;5.20;;;4.70;;
17422;SDS011;8829;47.932;7.810;2023-06-26T09:44:05;9.60;;;5.00;;
17422;SDS011;8829;47.932;7.810;2023-06-26T09:46:33;5.72;;;4.55;;
17422;SDS011;8829;47.932;7.810;2023-06-26T09:49:03;5.68;;;5.15;;
17422;SDS011;8829;47.932;7.810;2023-06-26T09:51:31;7.38;;;5.28;;
17422;SDS011;8829;47.932;7.810;2023-06-26T09:53:58;6.05;;;4.88;;
17422;SDS011;8829;47.932;7.810;2023-06-26T09:56:25;5.43;;;4.82;;
17422;SDS011;8829;47.932;7.810;2023-06-26T09:58:53;5.10;;;4.70;;
17422;SDS011;8829;47.932;7.810;2023-06-26T10:01:23;5.28;;;4.75;;
17422;SDS011;8829;47.932;7.810;2023-06-26T10:03:50;5.65;;;4.72;;
17422;SDS011;8829;47.932;7.810;2023-06-26T10:06:18;6.57;;;4.32;;
17422;SDS011;8829;47.932;7.810;2023-06-26T10:08:48;5.65;;;5.10;;
17422;SDS011;8829;47.932;7.810;2023-06-26T10:11:16;4.82;;;4.40;;
17422;SDS011;8829;47.932;7.810;2023-06-26T10:13:47;6.80;;;4.70;;
17422;SDS011;8829;47.932;7.810;2023-06-26T10:16:17;9.73;;;4.70;;
17422;SDS011;8829;47.932;7.810;2023-06-26T10:18:49;6.20;;;5.07;;
17422;SDS011;8829;47.932;7.810;2023-06-26T10:21:19;4.57;;;4.15;;
17422;SDS011;8829;47.932;7.810;2023-06-26T10:23:48;5.18;;;4.38;;
17422;SDS011;8829;47.932;7.810;2023-06-26T10:26:15;6.82;;;4.82;;
17422;SDS011;8829;47.932;7.810;2023-06-26T10:28:44;5.18;;;4.78;;
17422;SDS011;8829;47.932;7.810;2023-06-26T10:31:13;5.13;;;4.72;;
17422;SDS011;8829;47.932;7.810;2023-06-26T10:33:40;5.07;;;4.68;;
17422;SDS011;8829;47.932;7.810;2023-06-26T10:36:15;5.32;;;4.40;;
17422;SDS011;8829;47.932;7.810;2023-06-26T10:38:51;4.55;;;4.15;;
17422;SDS011;8829;47.932;7.810;2023-06-26T10:41:22;5.28;;;4.78;;
17422;SDS011;8829;47.932;7.810;2023-06-26T10:43:49;5.28;;;4.68;;
17422;SDS011;8829;47.932;7.810;2023-06-26T10:46:20;6.22;;;4.60;;
17422;SDS011;8829;47.932;7.810;2023-06-26T10:48:57;5.07;;;4.57;;
17422;SDS011;8829;47.932;7.810;2023-06-26T10:51:26;5.68;;;5.22;;
17422;SDS011;8829;47.932;7.810;2023-06-26T10:53:53;12.23;;;5.05;;
17422;SDS011;8829;47.932;7.810;2023-06-26T10:56:21;5.60;;;5.10;;
17422;SDS011;8829;47.932;7.810;2023-06-26T10:59:10;4.90;;;4.50;;
17422;SDS011;8829;47.932;7.810;2023-06-26T11:01:40;6.28;;;4.80;;
17422;SDS011;8829;47.932;7.810;2023-06-26T11:04:08;6.15;;;4.85;;
17422;SDS011;8829;47.932;7.810;2023-06-26T11:06:37;6.22;;;5.13;;
17422;SDS011;8829;47.932;7.810;2023-06-26T11:09:08;5.50;;;4.32;;
17422;SDS011;8829;47.932;7.810;2023-06-26T11:14:32;6.03;;;5.47;;
17422;SDS011;8829;47.932;7.810;2023-06-26T11:17:01;7.20;;;4.80;;
17422;SDS011;8829;47.932;7.810;2023-06-26T11:19:29;5.05;;;4.65;;
17422;SDS011;8829;47.932;7.810;2023-06-26T11:21:59;5.85;;;4.95;;
17422;SDS011;8829;47.932;7.810;2023-06-26T11:24:29;5.70;;;4.55;;
17422;SDS011;8829;47.932;7.810;2023-06-26T11:26:59;5.85;;;4.70;;
17422;SDS011;8829;47.932;7.810;2023-06-26T11:29:28;5.15;;;4.75;;
17422;SDS011;8829;47.932;7.810;2023-06-26T11:31:58;6.25;;;5.45;;
17422;SDS011;8829;47.932;7.810;2023-06-26T11:34:29;5.43;;;4.85;;
17422;SDS011;8829;47.932;7.810;2023-06-26T11:36:57;6.55;;;4.90;;
17422;SDS011;8829;47.932;7.810;2023-06-26T11:39:28;5.45;;;4.97;;
17422;SDS011;8829;47.932;7.810;2023-06-26T11:41:55;5.88;;;5.00;;
17422;SDS011;8829;47.932;7.810;2023-06-26T11:44:22;6.55;;;5.05;;
17422;SDS011;8829;47.932;7.810;2023-06-26T11:46:51;6.70;;;5.25;;
17422;SDS011;8829;47.932;7.810;2023-06-26T11:49:20;5.20;;;4.80;;
17422;SDS011;8829;47.932;7.810;2023-06-26T11:51:48;6.07;;;4.97;;
17422;SDS011;8829;47.932;7.810;2023-06-26T11:54:22;6.35;;;5.75;;
17422;SDS011;8829;47.932;7.810;2023-06-26T11:56:51;5.25;;;4.75;;
17422;SDS011;8829;47.932;7.810;2023-06-26T11:59:19;9.18;;;5.28;;
17422;SDS011;8829;47.932;7.810;2023-06-26T12:01:45;5.72;;;5.20;;
17422;SDS011;8829;47.932;7.810;2023-06-26T12:04:13;11.45;;;5.25;;
17422;SDS011;8829;47.932;7.810;2023-06-26T12:06:43;5.05;;;4.65;;
17422;SDS011;8829;47.932;7.810;2023-06-26T12:09:13;8.70;;;4.97;;
17422;SDS011;8829;47.932;7.810;2023-06-26T12:11:42;5.68;;;5.03;;
17422;SDS011;8829;47.932;7.810;2023-06-26T12:14:10;6.30;;;4.90;;
17422;SDS011;8829;47.932;7.810;2023-06-26T12:16:37;5.72;;;4.80;;
17422;SDS011;8829;47.932;7.810;2023-06-26T12:19:06;5.93;;;5.07;;
17422;SDS011;8829;47.932;7.810;2023-06-26T12:21:47;5.72;;;5.22;;
17422;SDS011;8829;47.932;7.810;2023-06-26T12:24:17;5.85;;;5.00;;
17422;SDS011;8829;47.932;7.810;2023-06-26T12:26:47;5.20;;;4.72;;
17422;SDS011;8829;47.932;7.810;2023-06-26T12:29:17;5.35;;;4.85;;
17422;SDS011;8829;47.932;7.810;2023-06-26T12:31:45;5.75;;;4.50;;
17422;SDS011;8829;47.932;7.810;2023-06-26T12:34:18;5.15;;;4.72;;
17422;SDS011;8829;47.932;7.810;2023-06-26T12:36:47;6.35;;;4.78;;
17422;SDS011;8829;47.932;7.810;2023-06-26T12:39:16;6.15;;;4.70;;
17422;SDS011;8829;47.932;7.810;2023-06-26T12:41:44;5.50;;;5.05;;
17422;SDS011;8829;47.932;7.810;2023-06-26T12:44:16;6.32;;;5.18;;
17422;SDS011;8829;47.932;7.810;2023-06-26T12:46:45;9.20;;;4.10;;
17422;SDS011;8829;47.932;7.810;2023-06-26T12:49:13;4.78;;;4.38;;
17422;SDS011;8829;47.932;7.810;2023-06-26T12:51:40;4.88;;;4.47;;
17422;SDS011;8829;47.932;7.810;2023-06-26T12:54:07;4.82;;;4.35;;
17422;SDS011;8829;47.932;7.810;2023-06-26T12:56:34;4.38;;;3.97;;
17422;SDS011;8829;47.932;7.810;2023-06-26T12:59:02;6.10;;;4.10;;
17422;SDS011;8829;47.932;7.810;2023-06-26T13:01:29;5.28;;;4.82;;
17422;SDS011;8829;47.932;7.810;2023-06-26T13:03:55;9.30;;;4.85;;
17422;SDS011;8829;47.932;7.810;2023-06-26T13:06:22;5.57;;;4.63;;
17422;SDS011;8829;47.932;7.810;2023-06-26T13:08:49;4.53;;;4.15;;
17422;SDS011;8829;47.932;7.810;2023-06-26T13:11:16;7.65;;;4.72;;
17422;SDS011;8829;47.932;7.810;2023-06-26T13:13:43;6.28;;;4.30;;
17422;SDS011;8829;47.932;7.810;2023-06-26T13:16:11;4.85;;;4.00;;
17422;SDS011;8829;47.932;7.810;2023-06-26T13:18:37;6.43;;;4.15;;
17422;SDS011;8829;47.932;7.810;2023-06-26T13:21:04;4.70;;;4.28;;
17422;SDS011;8829;47.932;7.810;2023-06-26T13:23:31;4.80;;;4.32;;
17422;SDS011;8829;47.932;7.810;2023-06-26T13:25:57;4.78;;;4.38;;
17422;SDS011;8829;47.932;7.810;2023-06-26T13:28:24;4.63;;;4.18;;
17422;SDS011;8829;47.932;7.810;2023-06-26T13:30:51;11.13;;;4.47;;
17422;SDS011;8829;47.932;7.810;2023-06-26T13:33:19;4.35;;;3.95;;
17422;SDS011;8829;47.932;7.810;2023-06-26T13:35:45;7.47;;;4.90;;
17422;SDS011;8829;47.932;7.810;2023-06-26T13:38:12;3.97;;;3.67;;
17422;SDS011;8829;47.932;7.810;2023-06-26T13:40:39;4.32;;;4.03;;
17422;SDS011;8829;47.932;7.810;2023-06-26T13:43:05;5.22;;;3.88;;
17422;SDS011;8829;47.932;7.810;2023-06-26T13:45:32;6.10;;;4.05;;
17422;SDS011;8829;47.932;7.810;2023-06-26T13:47:58;4.40;;;4.00;;
17422;SDS011;8829;47.932;7.810;2023-06-26T13:50:26;3.80;;;3.53;;
17422;SDS011;8829;47.932;7.810;2023-06-26T13:52:55;4.07;;;3.78;;
17422;SDS011;8829;47.932;7.810;2023-06-26T13:55:21;3.85;;;3.40;;
17422;SDS011;8829;47.932;7.810;2023-06-26T13:57:48;3.40;;;3.10;;
17422;SDS011;8829;47.932;7.810;2023-06-26T14:00:15;4.15;;;3.25;;
17422;SDS011;8829;47.932;7.810;2023-06-26T14:02:45;4.00;;;3.60;;
17422;SDS011;8829;47.932;7.810;2023-06-26T14:05:11;3.80;;;3.50;;
17422;SDS011;8829;47.932;7.810;2023-06-26T14:07:39;3.67;;;3.38;;
17422;SDS011;8829;47.932;7.810;2023-06-26T14:10:08;4.28;;;3.08;;
17422;SDS011;8829;47.932;7.810;2023-06-26T14:12:35;4.15;;;3.83;;
17422;SDS011;8829;47.932;7.810;2023-06-26T14:15:02;6.65;;;3.83;;
17422;SDS011;8829;47.932;7.810;2023-06-26T14:17:30;5.85;;;3.83;;
17422;SDS011;8829;47.932;7.810;2023-06-26T14:19:56;4.18;;;3.78;;
17422;SDS011;8829;47.932;7.810;2023-06-26T14:22:24;3.45;;;3.13;;
17422;SDS011;8829;47.932;7.810;2023-06-26T14:24:52;6.90;;;3.30;;
17422;SDS011;8829;47.932;7.810;2023-06-26T14:27:19;3.40;;;2.78;;
17422;SDS011;8829;47.932;7.810;2023-06-26T14:29:46;4.55;;;3.13;;
17422;SDS011;8829;47.932;7.810;2023-06-26T14:32:12;5.05;;;2.97;;
17422;SDS011;8829;47.932;7.810;2023-06-26T14:34:39;3.90;;;2.88;;
17422;SDS011;8829;47.932;7.810;2023-06-26T14:37:06;2.75;;;2.55;;
17422;SDS011;8829;47.932;7.810;2023-06-26T14:39:33;3.00;;;2.80;;
17422;SDS011;8829;47.932;7.810;2023-06-26T14:42:01;3.47;;;3.17;;
17422;SDS011;8829;47.932;7.810;2023-06-26T14:44:27;2.60;;;2.40;;
17422;SDS011;8829;47.932;7.810;2023-06-26T14:46:54;2.65;;;2.45;;
17422;SDS011;8829;47.932;7.810;2023-06-26T14:49:21;3.38;;;2.50;;
17422;SDS011;8829;47.932;7.810;2023-06-26T14:51:47;3.20;;;2.25;;
17422;SDS011;8829;47.932;7.810;2023-06-26T14:54:14;2.97;;;2.67;;
17422;SDS011;8829;47.932;7.810;2023-06-26T14:56:41;3.35;;;3.05;;
17422;SDS011;8829;47.932;7.810;2023-06-26T14:59:10;5.40;;;2.92;;
17422;SDS011;8829;47.932;7.810;2023-06-26T15:01:37;2.97;;;2.78;;
17422;SDS011;8829;47.932;7.810;2023-06-26T15:04:04;2.10;;;2.00;;
17422;SDS011;8829;47.932;7.810;2023-06-26T15:06:31;2.85;;;2.65;;